createdAt,value
2018-08-24T00:02:08.254Z,74.72
2018-08-24T00:04:35.784Z,74.60
2018-08-24T00:07:03.405Z,75.01
2018-08-24T00:09:30.957Z,74.17
2018-08-24T00:11:58.522Z,74.20
2018-08-24T00:14:26.397Z,74.14
2018-08-24T00:16:53.958Z,73.60
2018-08-24T00:19:21.562Z,74.41
2018-08-24T00:21:49.146Z,74.16
2018-08-24T00:24:16.713Z,74.47
2018-08-24T00:26:44.294Z,74.42
2018-08-24T00:29:12.106Z,74.31
2018-08-24T00:31:40.114Z,74.50
2018-08-24T00:34:07.666Z,74.07
2018-08-24T00:36:35.247Z,73.88
2018-08-24T00:39:04.941Z,74.54
2018-08-24T00:41:32.478Z,74.99
2018-08-24T00:44:00.035Z,75.21
2018-08-24T00:46:27.707Z,75.87
2018-08-24T00:48:55.298Z,76.42
2018-08-24T00:51:22.825Z,76.63
2018-08-24T00:53:50.375Z,77.97
2018-08-24T00:56:17.903Z,78.11
2018-08-24T00:58:45.478Z,77.85
2018-08-24T01:01:13.081Z,77.53
2018-08-24T01:03:40.622Z,78.39
2018-08-24T01:06:08.403Z,78.04
2018-08-24T01:08:36.046Z,78.63
2018-08-24T01:11:04.457Z,78.93
2018-08-24T01:13:32.049Z,78.94
2018-08-24T01:16:00.643Z,79.57
2018-08-24T01:18:33.851Z,79.83
2018-08-24T01:21:01.426Z,80.68
2018-08-24T01:23:30.110Z,80.54
2018-08-24T01:25:57.649Z,80.51
2018-08-24T01:28:26.546Z,80.46
2018-08-24T01:30:55.679Z,80.93
2018-08-24T01:33:23.246Z,80.50
2018-08-24T01:35:50.807Z,80.53
2018-08-24T01:38:18.354Z,80.37
2018-08-24T01:40:45.859Z,80.80
2018-08-24T01:43:13.435Z,80.81
2018-08-24T01:45:41.051Z,80.73
2018-08-24T01:48:09.146Z,81.38
2018-08-24T01:50:37.061Z,81.39
2018-08-24T01:53:04.719Z,80.65
2018-08-24T01:55:32.302Z,80.27
2018-08-24T01:58:00.143Z,79.99
2018-08-24T02:00:27.691Z,80.17
2018-08-24T02:02:55.230Z,79.24
2018-08-24T02:05:22.774Z,79.47
2018-08-24T02:07:50.326Z,80.33
2018-08-24T02:10:23.497Z,79.65
2018-08-24T02:12:56.663Z,79.51
2018-08-24T02:15:24.265Z,79.70
2018-08-24T02:17:57.523Z,80.41
2018-08-24T02:20:30.732Z,79.65
2018-08-24T02:23:00.580Z,80.17
2018-08-24T02:25:28.110Z,80.17
2018-08-24T02:27:55.677Z,80.20
2018-08-24T02:30:23.207Z,79.93
2018-08-24T02:32:50.736Z,79.73
2018-08-24T02:35:19.023Z,79.66
2018-08-24T02:37:47.734Z,80.54
2018-08-24T02:40:15.258Z,80.91
2018-08-24T02:42:42.823Z,80.69
2018-08-24T02:45:10.423Z,81.19
2018-08-24T02:47:38.003Z,80.75
2018-08-24T02:50:05.710Z,80.29
2018-08-24T02:52:33.307Z,80.35
2018-08-24T02:55:00.815Z,81.03
2018-08-24T02:57:28.350Z,80.94
2018-08-24T02:59:55.921Z,80.48
2018-08-24T03:02:23.715Z,80.25
2018-08-24T03:04:51.223Z,80.15
2018-08-24T03:07:18.739Z,79.77
2018-08-24T03:09:46.598Z,80.06
2018-08-24T03:12:14.182Z,80.42
2018-08-24T03:14:41.747Z,80.93
2018-08-24T03:18:13.711Z,80.65
2018-08-24T03:20:41.259Z,81.09
2018-08-24T03:23:08.774Z,81.89
2018-08-24T03:25:36.362Z,81.35
2018-08-24T03:28:03.895Z,80.73
2018-08-24T03:30:31.724Z,80.54
2018-08-24T03:32:59.236Z,80.76
2018-08-24T03:35:26.754Z,79.96
2018-08-24T03:37:54.303Z,80.28
2018-08-24T03:40:21.834Z,80.60
2018-08-24T03:42:49.359Z,80.49
2018-08-24T03:45:16.958Z,80.76
2018-08-24T03:47:44.507Z,80.19
2018-08-24T03:50:12.098Z,79.54
2018-08-24T03:52:39.759Z,79.65
2018-08-24T03:55:07.314Z,79.35
2018-08-24T03:57:34.890Z,79.80
2018-08-24T04:00:02.426Z,79.21
2018-08-24T04:02:29.992Z,79.34
2018-08-24T04:04:57.518Z,79.07
2018-08-24T04:07:25.069Z,78.34
2018-08-24T04:09:52.622Z,78.47
2018-08-24T04:12:20.178Z,78.30
2018-08-24T04:14:47.722Z,78.25
2018-08-24T04:17:21.039Z,77.28
2018-08-24T04:19:48.595Z,77.69
2018-08-24T04:22:16.115Z,78.15
2018-08-24T04:24:43.667Z,79.23
2018-08-24T04:27:11.247Z,78.88
2018-08-24T04:29:39.141Z,78.51
2018-08-24T04:32:06.671Z,78.91
2018-08-24T04:34:34.213Z,78.59
2018-08-24T04:37:01.749Z,78.96
2018-08-24T04:39:29.267Z,78.53
2018-08-24T04:41:56.801Z,78.61
2018-08-24T04:44:24.338Z,79.23
2018-08-24T04:46:51.876Z,78.93
2018-08-24T04:49:19.421Z,78.76
2018-08-24T04:51:46.959Z,78.29
2018-08-24T04:54:14.555Z,78.69
2018-08-24T04:56:42.166Z,78.80
2018-08-24T04:59:09.689Z,78.53
2018-08-24T05:01:37.238Z,79.14
2018-08-24T05:04:04.814Z,79.22
2018-08-24T05:06:32.333Z,79.21
2018-08-24T05:08:59.902Z,78.79
2018-08-24T05:11:27.443Z,78.85
2018-08-24T05:13:55.018Z,79.50
2018-08-24T05:16:22.584Z,79.79
2018-08-24T05:18:50.125Z,79.87
2018-08-24T05:21:17.702Z,80.27
2018-08-24T05:23:45.215Z,79.63
2018-08-24T05:26:12.778Z,79.63
2018-08-24T05:28:40.322Z,79.44
2018-08-24T05:31:07.846Z,79.53
2018-08-24T05:33:35.391Z,79.59
2018-08-24T05:36:02.929Z,79.40
2018-08-24T05:38:30.461Z,78.65
2018-08-24T05:40:58.032Z,78.53
2018-08-24T05:43:25.569Z,78.79
2018-08-24T05:45:53.122Z,78.59
2018-08-24T05:48:20.731Z,78.80
2018-08-24T05:50:48.250Z,78.85
2018-08-24T05:53:15.794Z,78.86
2018-08-24T05:55:43.533Z,78.39
2018-08-24T05:58:10.883Z,78.91
2018-08-24T06:00:39.597Z,78.40
2018-08-24T06:03:07.898Z,78.37
2018-08-24T06:05:35.549Z,78.00
2018-08-24T06:08:03.442Z,78.20
2018-08-24T06:10:30.982Z,78.01
2018-08-24T06:12:59.366Z,77.88
2018-08-24T06:15:27.283Z,77.65
2018-08-24T06:17:55.806Z,77.39
2018-08-24T06:20:23.626Z,77.74
2018-08-24T06:22:51.557Z,77.45
2018-08-24T06:25:19.118Z,77.24
2018-08-24T06:27:46.686Z,76.96
2018-08-24T06:30:14.217Z,77.06
2018-08-24T06:32:42.402Z,77.26
2018-08-24T06:35:11.195Z,76.98
2018-08-24T06:37:38.823Z,77.64
2018-08-24T06:40:06.459Z,78.01
2018-08-24T06:42:34.395Z,77.82
2018-08-24T06:45:01.982Z,78.12
2018-08-24T06:47:29.563Z,77.66
2018-08-24T06:49:57.154Z,77.54
2018-08-24T06:52:25.114Z,77.54
2018-08-24T06:54:53.885Z,77.45
2018-08-24T06:57:21.460Z,77.04
2018-08-24T06:59:49.197Z,76.43
2018-08-24T07:02:16.732Z,76.27
2018-08-24T07:04:44.271Z,75.50
2018-08-24T07:07:11.898Z,75.11
2018-08-24T07:09:39.654Z,75.65
2018-08-24T07:12:08.356Z,75.07
2018-08-24T07:14:35.895Z,74.39
2018-08-24T07:17:03.472Z,74.55
2018-08-24T07:19:31.335Z,73.16
2018-08-24T07:21:59.111Z,74.55
2018-08-24T07:24:26.647Z,75.15
2018-08-24T07:26:54.966Z,75.79
2018-08-24T07:29:23.132Z,75.86
2018-08-24T07:31:50.718Z,76.71
2018-08-24T07:34:18.274Z,76.60
2018-08-24T07:36:45.827Z,76.50
2018-08-24T07:39:14.363Z,76.85
2018-08-24T07:41:42.281Z,75.98
2018-08-24T07:44:10.749Z,74.05
2018-08-24T07:46:38.451Z,72.03
2018-08-24T07:49:06.995Z,71.19
2018-08-24T07:51:34.910Z,71.40
2018-08-24T07:54:02.826Z,72.04
2018-08-24T07:56:31.195Z,72.33
2018-08-24T07:59:00.179Z,72.83
2018-08-24T08:01:28.327Z,72.12
2018-08-24T08:03:56.477Z,70.17
2018-08-24T08:06:24.066Z,69.47
2018-08-24T08:08:51.598Z,69.33
2018-08-24T08:11:19.173Z,66.89
2018-08-24T08:13:46.712Z,66.12
2018-08-24T08:16:14.240Z,65.52
2018-08-24T08:18:41.869Z,64.10
2018-08-24T08:21:09.363Z,61.39
2018-08-24T08:23:37.030Z,61.37
2018-08-24T08:26:04.614Z,58.85
2018-08-24T08:28:32.244Z,56.91
2018-08-24T08:30:59.826Z,55.91
2018-08-24T08:33:27.388Z,55.88
2018-08-24T08:35:55.033Z,52.37
2018-08-24T08:38:22.631Z,50.50
2018-08-24T08:40:50.211Z,50.73
2018-08-24T08:43:17.854Z,49.43
2018-08-24T08:45:45.387Z,46.26
2018-08-24T08:48:13.033Z,45.12
2018-08-24T08:50:40.584Z,45.02
2018-08-24T08:53:08.134Z,45.63
2018-08-24T08:55:35.723Z,45.57
2018-08-24T08:58:03.310Z,43.88
2018-08-24T09:00:30.887Z,43.69
2018-08-24T09:02:58.445Z,44.88
2018-08-24T09:05:26.027Z,55.91
2018-08-24T09:07:53.566Z,56.86
2018-08-24T09:10:21.135Z,56.68
2018-08-24T09:12:48.752Z,61.25
2018-08-24T09:15:16.257Z,63.70
2018-08-24T09:17:49.559Z,66.04
2018-08-24T09:20:22.848Z,65.98
2018-08-24T09:22:56.019Z,67.62
2018-08-24T09:25:29.304Z,68.99
2018-08-24T09:28:02.575Z,70.38
2018-08-24T09:31:04.618Z,69.05
2018-08-24T09:33:32.190Z,67.80
2018-08-24T09:36:04.277Z,65.57
2018-08-24T09:38:32.083Z,62.30
2018-08-24T09:40:59.617Z,60.95
2018-08-24T09:43:32.938Z,59.51
2018-08-24T09:46:00.496Z,57.73
2018-08-24T09:48:30.570Z,55.77
2018-08-24T09:51:03.790Z,56.09
2018-08-24T09:53:37.062Z,55.59
2018-08-24T09:56:04.697Z,56.08
2018-08-24T09:58:32.220Z,52.59
2018-08-24T10:01:05.335Z,50.83
2018-08-24T10:03:38.462Z,48.14
2018-08-24T10:06:12.033Z,46.18
2018-08-24T10:08:45.290Z,45.39
2018-08-24T10:11:12.978Z,43.30
2018-08-24T10:13:40.562Z,44.39
2018-08-24T10:16:08.107Z,43.61
2018-08-24T10:18:35.688Z,42.68
2018-08-24T10:21:03.244Z,41.54
2018-08-24T10:23:30.818Z,42.20
2018-08-24T10:25:58.599Z,43.38
2018-08-24T10:28:26.146Z,40.92
2018-08-24T10:30:53.943Z,41.01
2018-08-24T10:33:21.491Z,40.58
2018-08-24T10:35:49.051Z,42.13
2018-08-24T10:38:16.926Z,44.22
2018-08-24T10:40:44.493Z,43.08
2018-08-24T10:43:12.452Z,42.21
2018-08-24T10:45:40.006Z,39.78
2018-08-24T10:48:07.584Z,43.41
2018-08-24T10:50:35.186Z,43.67
2018-08-24T10:53:02.751Z,43.43
2018-08-24T10:55:30.317Z,43.59
2018-08-24T10:57:58.238Z,41.85
2018-08-24T11:00:25.854Z,42.35
2018-08-24T11:02:53.419Z,40.82
2018-08-24T11:05:22.083Z,41.00
2018-08-24T11:07:49.605Z,40.92
2018-08-24T11:10:17.172Z,41.49
2018-08-24T11:12:44.747Z,42.45
2018-08-24T11:15:12.303Z,42.69
2018-08-24T11:17:45.546Z,43.46
2018-08-24T11:20:13.078Z,44.44
2018-08-24T11:22:40.794Z,45.25
2018-08-24T11:25:08.320Z,46.52
2018-08-24T11:27:35.858Z,48.22
2018-08-24T11:30:03.840Z,51.41
2018-08-24T11:32:31.829Z,52.37
2018-08-24T11:34:59.422Z,53.12
2018-08-24T11:37:26.960Z,53.86
2018-08-24T11:39:54.543Z,52.91
2018-08-24T11:42:22.160Z,52.17
2018-08-24T11:44:50.075Z,53.53
2018-08-24T11:47:18.298Z,53.69
2018-08-24T11:49:46.362Z,53.17
2018-08-24T11:52:13.937Z,53.54
2018-08-24T11:54:41.686Z,54.00
2018-08-24T11:57:09.234Z,54.17
2018-08-24T11:59:36.778Z,54.34
2018-08-24T12:02:04.496Z,55.29
2018-08-24T12:04:32.028Z,55.18
2018-08-24T12:06:59.655Z,55.95
2018-08-24T12:09:27.203Z,56.26
2018-08-24T12:11:56.399Z,57.30
2018-08-24T12:14:23.943Z,57.37
2018-08-24T12:16:51.743Z,56.40
2018-08-24T12:19:19.443Z,57.31
2018-08-24T12:21:47.937Z,56.79
2018-08-24T12:24:15.519Z,56.20
2018-08-24T12:26:43.440Z,55.82
2018-08-24T12:29:11.418Z,56.93
2018-08-24T12:31:38.947Z,56.12
2018-08-24T12:34:06.627Z,55.61
2018-08-24T12:36:34.188Z,55.44
2018-08-24T12:39:03.201Z,56.02
2018-08-24T12:41:30.742Z,55.34
2018-08-24T12:43:58.306Z,55.05
2018-08-24T12:46:25.828Z,53.70
2018-08-24T12:48:53.426Z,54.07
2018-08-24T12:51:20.978Z,53.89
2018-08-24T12:53:48.516Z,54.63
2018-08-24T12:56:21.416Z,53.71
2018-08-24T12:58:50.085Z,54.56
2018-08-24T13:01:17.991Z,52.67
2018-08-24T13:03:45.571Z,54.12
2018-08-24T13:06:13.165Z,53.22
2018-08-24T13:08:41.241Z,54.33
2018-08-24T13:11:08.774Z,54.55
2018-08-24T13:13:36.362Z,54.57
2018-08-24T13:16:04.150Z,55.49
2018-08-24T13:18:31.808Z,55.89
2018-08-24T13:20:59.356Z,56.10
2018-08-24T13:23:26.903Z,57.30
2018-08-24T13:25:54.482Z,57.75
2018-08-24T13:28:22.027Z,57.95
2018-08-24T13:30:49.820Z,58.36
2018-08-24T13:33:17.423Z,57.10
2018-08-24T13:35:45.066Z,58.65
2018-08-24T13:38:13.451Z,59.80
2018-08-24T13:40:40.994Z,59.30
2018-08-24T13:43:09.556Z,60.45
2018-08-24T13:45:37.122Z,61.11
2018-08-24T13:48:05.075Z,61.18
2018-08-24T13:50:32.692Z,61.20
2018-08-24T13:53:00.499Z,60.75
2018-08-24T13:55:28.229Z,61.43
2018-08-24T13:57:55.875Z,61.16
2018-08-24T14:00:24.007Z,61.26
2018-08-24T14:02:51.598Z,61.09
2018-08-24T14:05:19.161Z,61.26
2018-08-24T14:07:46.739Z,61.11
2018-08-24T14:10:14.297Z,61.27
2018-08-24T14:12:41.891Z,61.40
2018-08-24T14:15:09.430Z,61.51
2018-08-24T14:17:36.952Z,61.58
2018-08-24T14:20:05.827Z,62.22
2018-08-24T14:22:33.647Z,61.15
2018-08-24T14:25:01.234Z,61.25
2018-08-24T14:27:28.838Z,61.88
2018-08-24T14:29:56.351Z,62.44
2018-08-24T14:32:24.018Z,62.88
2018-08-24T14:34:51.565Z,62.50
2018-08-24T14:37:19.112Z,63.72
2018-08-24T14:39:46.666Z,63.04
2018-08-24T14:42:14.235Z,63.26
2018-08-24T14:44:41.779Z,63.32
2018-08-24T14:47:09.351Z,63.27
2018-08-24T14:49:36.913Z,63.80
2018-08-24T14:52:04.509Z,63.53
2018-08-24T14:54:32.065Z,63.55
2018-08-24T14:56:59.639Z,63.42
2018-08-24T14:59:27.214Z,62.48
2018-08-24T15:01:54.816Z,62.45
2018-08-24T15:04:22.393Z,62.65
2018-08-24T15:06:49.979Z,62.24
2018-08-24T15:09:17.522Z,63.82
2018-08-24T15:11:45.097Z,63.44
2018-08-24T15:14:12.647Z,64.10
2018-08-24T15:16:40.233Z,64.29
2018-08-24T15:19:07.794Z,62.95
2018-08-24T15:21:35.367Z,62.78
2018-08-24T15:24:02.909Z,62.63
2018-08-24T15:26:31.281Z,62.25
2018-08-24T15:28:58.910Z,63.34
2018-08-24T15:31:26.510Z,62.34
2018-08-24T15:33:54.139Z,62.63
2018-08-24T15:36:21.699Z,62.29
2018-08-24T15:38:49.303Z,61.86
2018-08-24T15:41:16.845Z,64.03
2018-08-24T15:43:44.399Z,66.35
2018-08-24T15:46:12.021Z,66.05
2018-08-24T15:48:39.575Z,66.76
2018-08-24T15:51:07.144Z,68.67
2018-08-24T15:53:34.706Z,67.62
2018-08-24T15:56:03.275Z,65.89
2018-08-24T15:58:30.825Z,66.31
2018-08-24T16:00:58.397Z,67.36
2018-08-24T16:03:25.955Z,67.27
2018-08-24T16:05:53.531Z,67.19
2018-08-24T16:08:21.383Z,66.63
2018-08-24T16:10:48.939Z,66.85
2018-08-24T16:13:16.505Z,67.15
2018-08-24T16:15:44.049Z,66.51
2018-08-24T16:18:17.099Z,66.87
2018-08-24T16:20:44.656Z,66.92
2018-08-24T16:23:12.190Z,66.01
2018-08-24T16:25:39.754Z,66.59
2018-08-24T16:28:07.306Z,66.76
2018-08-24T16:30:34.851Z,66.61
2018-08-24T16:33:02.404Z,65.81
2018-08-24T16:35:30.031Z,65.55
2018-08-24T16:37:57.588Z,65.38
2018-08-24T16:40:25.238Z,65.14
2018-08-24T16:42:52.773Z,65.91
2018-08-24T16:45:20.316Z,64.77
2018-08-24T16:47:48.269Z,65.51
2018-08-24T16:50:15.823Z,64.86
2018-08-24T16:52:43.362Z,63.45
2018-08-24T16:55:10.955Z,63.48
2018-08-24T16:57:38.642Z,64.59
2018-08-24T17:00:06.606Z,64.24
2018-08-24T17:02:34.151Z,64.63
2018-08-24T17:05:01.707Z,63.46
2018-08-24T17:07:29.286Z,63.98
2018-08-24T17:09:56.837Z,63.20
2018-08-24T17:12:24.816Z,63.18
2018-08-24T17:14:53.305Z,63.25
2018-08-24T17:17:20.863Z,62.70
2018-08-24T17:19:48.470Z,62.05
2018-08-24T17:22:16.021Z,62.60
2018-08-24T17:24:43.569Z,63.19
2018-08-24T17:27:11.155Z,63.58
2018-08-24T17:29:38.712Z,63.46
2018-08-24T17:32:06.258Z,63.49
2018-08-24T17:34:33.806Z,63.58
2018-08-24T17:37:01.408Z,63.55
2018-08-24T17:39:28.948Z,63.35
2018-08-24T17:41:56.554Z,63.69
2018-08-24T17:44:24.169Z,63.91
2018-08-24T17:46:51.731Z,63.61
2018-08-24T17:49:19.279Z,63.33
2018-08-24T17:51:47.640Z,63.35
2018-08-24T17:54:15.278Z,64.04
2018-08-24T17:56:42.824Z,64.18
2018-08-24T17:59:10.367Z,64.60
2018-08-24T18:01:38.200Z,64.41
2018-08-24T18:04:05.798Z,64.70
2018-08-24T18:06:33.352Z,64.59
2018-08-24T18:09:00.974Z,64.58
2018-08-24T18:11:28.571Z,64.87
2018-08-24T18:13:56.126Z,65.34
2018-08-24T18:16:23.704Z,65.54
2018-08-24T18:18:51.268Z,65.40
2018-08-24T18:21:18.815Z,65.81
2018-08-24T18:23:46.886Z,65.64
2018-08-24T18:26:14.488Z,66.10
2018-08-24T18:28:42.121Z,66.00
2018-08-24T18:31:10.041Z,67.08
2018-08-24T18:33:37.590Z,67.06
2018-08-24T18:36:05.526Z,67.05
2018-08-24T18:38:33.141Z,67.54
2018-08-24T18:41:00.767Z,67.44
2018-08-24T18:43:28.316Z,67.17
2018-08-24T18:45:55.890Z,67.87
2018-08-24T18:48:23.449Z,67.81
2018-08-24T18:50:51.171Z,67.82
2018-08-24T18:53:19.194Z,68.30
2018-08-24T18:55:46.795Z,68.80
2018-08-24T18:58:14.351Z,68.63
2018-08-24T19:00:41.954Z,68.46
2018-08-24T19:03:09.505Z,69.13
2018-08-24T19:05:37.071Z,68.48
2018-08-24T19:08:09.267Z,69.13
2018-08-24T19:10:42.829Z,68.72
2018-08-24T19:13:11.547Z,68.73
2018-08-24T19:15:39.179Z,69.26
2018-08-24T19:18:12.399Z,69.01
2018-08-24T19:20:45.705Z,69.46
2018-08-24T19:23:13.261Z,69.84
2018-08-24T19:25:40.878Z,69.86
2018-08-24T19:28:13.974Z,69.48
2018-08-24T19:30:41.583Z,69.56
2018-08-24T19:33:09.143Z,70.38
2018-08-24T19:35:36.698Z,70.55
2018-08-24T19:38:04.294Z,70.22
2018-08-24T19:40:37.504Z,70.41
2018-08-24T19:43:05.246Z,70.28
2018-08-24T19:45:32.802Z,69.99
2018-08-24T19:48:06.216Z,70.56
2018-08-24T19:50:33.774Z,70.82
2018-08-24T19:53:01.362Z,71.29
2018-08-24T19:55:28.991Z,70.92
2018-08-24T19:58:02.210Z,71.05
2018-08-24T20:00:29.777Z,71.31
2018-08-24T20:02:57.343Z,70.64
2018-08-24T20:05:24.869Z,70.15
2018-08-24T20:07:58.347Z,71.01
2018-08-24T20:10:25.915Z,72.46
2018-08-24T20:12:53.444Z,72.02
2018-08-24T20:15:26.646Z,72.51
2018-08-24T20:17:54.216Z,72.28
2018-08-24T20:20:21.790Z,72.37
2018-08-24T20:22:49.355Z,72.28
2018-08-24T20:25:16.943Z,71.85
2018-08-24T20:27:44.507Z,72.13
2018-08-24T20:30:12.091Z,71.77
2018-08-24T20:32:39.654Z,71.64
2018-08-24T20:35:07.231Z,71.64
2018-08-24T20:37:34.788Z,71.07
2018-08-24T20:40:02.725Z,71.28
2018-08-24T20:42:30.247Z,71.41
2018-08-24T20:44:57.810Z,71.56
2018-08-24T20:47:25.524Z,71.63
2018-08-24T20:49:52.934Z,71.61
2018-08-24T20:52:20.698Z,71.35
2018-08-24T20:54:48.271Z,72.09
2018-08-24T20:57:15.796Z,71.96
2018-08-24T20:59:43.370Z,71.75
2018-08-24T21:02:10.911Z,72.09
2018-08-24T21:04:38.798Z,73.28
2018-08-24T21:07:06.686Z,72.91
2018-08-24T21:09:34.254Z,72.96
2018-08-24T21:12:01.815Z,73.09
2018-08-24T21:14:29.492Z,73.21
2018-08-24T21:16:57.245Z,73.32
2018-08-24T21:19:24.796Z,73.33
2018-08-24T21:21:52.337Z,72.76
2018-08-24T21:24:19.867Z,73.26
2018-08-24T21:26:47.840Z,73.65
2018-08-24T21:29:16.226Z,73.35
2018-08-24T21:31:43.654Z,73.31
2018-08-24T21:34:11.183Z,72.73
2018-08-24T21:36:38.726Z,72.30
2018-08-24T21:39:07.961Z,72.04
2018-08-24T21:41:35.592Z,72.67
2018-08-24T21:44:03.535Z,72.56
2018-08-24T21:46:31.070Z,71.99
2018-08-24T21:48:58.610Z,72.54
2018-08-24T21:51:26.159Z,72.40
2018-08-24T21:53:53.723Z,72.72
2018-08-24T21:56:21.318Z,71.87
2018-08-24T21:58:48.857Z,72.43
2018-08-24T22:01:16.453Z,72.23
2018-08-24T22:03:44.043Z,72.11
2018-08-24T22:06:11.607Z,72.39
2018-08-24T22:08:39.167Z,71.49
2018-08-24T22:11:06.799Z,71.42
2018-08-24T22:13:34.338Z,70.88
2018-08-24T22:16:01.880Z,70.95
2018-08-24T22:18:29.506Z,71.21
2018-08-24T22:20:57.014Z,71.54
2018-08-24T22:23:24.561Z,71.47
2018-08-24T22:25:52.103Z,71.45
2018-08-24T22:28:19.708Z,71.78
2018-08-24T22:30:47.298Z,71.50
2018-08-24T22:33:14.819Z,71.88
2018-08-24T22:35:42.367Z,72.09
2018-08-24T22:38:09.915Z,71.96
2018-08-24T22:40:37.622Z,71.76
2018-08-24T22:43:09.974Z,72.09
2018-08-24T22:45:37.516Z,71.68
2018-08-24T22:48:05.694Z,71.87
2018-08-24T22:50:33.243Z,71.44
2018-08-24T22:53:00.807Z,71.78
2018-08-24T22:55:28.687Z,71.59
2018-08-24T22:57:56.223Z,71.87
2018-08-24T23:00:23.746Z,71.57
2018-08-24T23:02:51.311Z,71.53
2018-08-24T23:05:18.843Z,71.51
2018-08-24T23:07:46.395Z,71.31
2018-08-24T23:10:14.031Z,71.71
2018-08-24T23:12:41.557Z,72.10
2018-08-24T23:15:09.118Z,71.74
2018-08-24T23:17:36.693Z,72.28
2018-08-24T23:20:05.322Z,72.38
2018-08-24T23:22:32.862Z,72.06
2018-08-24T23:25:00.411Z,72.32
2018-08-24T23:27:27.987Z,72.15
2018-08-24T23:29:55.510Z,72.56
2018-08-24T23:32:23.084Z,72.33
2018-08-24T23:34:50.667Z,72.34
2018-08-24T23:37:18.256Z,72.53
2018-08-24T23:39:45.806Z,72.71
2018-08-24T23:42:13.342Z,73.05
2018-08-24T23:44:40.890Z,73.08
2018-08-24T23:47:08.451Z,72.72
2018-08-24T23:49:35.986Z,73.27
2018-08-24T23:52:03.569Z,73.55
2018-08-24T23:54:31.143Z,73.64
2018-08-24T23:56:59.851Z,73.33
2018-08-24T23:59:27.393Z,73.48
